createdAt,value
2019-02-03T00:00:37.397Z,5.60
2019-02-03T00:03:04.813Z,5.60
2019-02-03T00:05:32.996Z,5.60
2019-02-03T00:08:01.200Z,5.60
2019-02-03T00:10:47.312Z,5.50
2019-02-03T00:13:32.937Z,5.50
2019-02-03T00:16:00.691Z,5.40
2019-02-03T00:18:28.139Z,5.40
2019-02-03T00:20:56.001Z,5.30
2019-02-03T00:23:23.593Z,5.30
2019-02-03T00:25:50.945Z,5.20
2019-02-03T00:28:18.763Z,5.30
2019-02-03T00:30:46.104Z,5.20
2019-02-03T00:33:13.857Z,5.20
2019-02-03T00:35:41.679Z,5.10
2019-02-03T00:38:19.859Z,5.10
2019-02-03T00:40:39.523Z,5.10
2019-02-03T00:43:07.615Z,5.60
2019-02-03T00:45:35.759Z,5.20
2019-02-03T00:48:03.352Z,5.20
2019-02-03T00:50:31.310Z,5.50
2019-02-03T00:52:59.228Z,5.20
2019-02-03T00:55:27.006Z,5.20
2019-02-03T00:57:54.894Z,5.20
2019-02-03T01:00:22.294Z,5.20
2019-02-03T01:02:49.867Z,5.20
2019-02-03T01:05:17.592Z,5.20
2019-02-03T01:07:45.981Z,5.30
2019-02-03T01:10:16.288Z,5.20
2019-02-03T01:12:44.121Z,5.20
2019-02-03T01:15:11.838Z,5.20
2019-02-03T01:17:39.495Z,5.20
2019-02-03T01:20:09.980Z,5.20
2019-02-03T01:22:37.627Z,5.20
2019-02-03T01:25:06.362Z,5.30
2019-02-03T01:27:34.205Z,5.30
2019-02-03T01:30:02.025Z,5.30
2019-02-03T01:32:29.594Z,5.30
2019-02-03T01:34:56.963Z,5.30
2019-02-03T01:37:24.591Z,5.30
2019-02-03T01:39:53.931Z,5.30
2019-02-03T01:42:22.008Z,5.30
2019-02-03T01:44:49.323Z,5.40
2019-02-03T01:47:17.181Z,5.40
2019-02-03T01:49:45.818Z,5.40
2019-02-03T01:52:13.990Z,5.40
2019-02-03T01:54:42.260Z,5.40
2019-02-03T01:57:09.829Z,5.40
2019-02-03T01:59:37.383Z,5.40
2019-02-03T02:02:05.236Z,5.40
2019-02-03T02:04:32.893Z,5.40
2019-02-03T02:07:01.254Z,5.60
2019-02-03T02:09:28.658Z,5.40
2019-02-03T02:11:56.168Z,5.40
2019-02-03T02:14:23.958Z,5.40
2019-02-03T02:16:51.374Z,5.40
2019-02-03T02:19:19.412Z,5.60
2019-02-03T02:21:47.199Z,5.30
2019-02-03T02:24:15.157Z,5.30
2019-02-03T02:26:42.558Z,5.30
2019-02-03T02:29:10.544Z,5.30
2019-02-03T02:31:38.214Z,5.30
2019-02-03T02:34:05.673Z,5.30
2019-02-03T02:36:33.726Z,5.30
2019-02-03T02:39:04.738Z,5.20
2019-02-03T02:41:32.499Z,5.30
2019-02-03T02:44:00.076Z,5.30
2019-02-03T02:46:27.847Z,5.30
2019-02-03T02:48:55.802Z,5.30
2019-02-03T02:51:23.255Z,5.30
2019-02-03T02:53:51.890Z,5.30
2019-02-03T02:56:19.531Z,5.30
2019-02-03T02:58:47.307Z,5.30
2019-02-03T03:01:15.131Z,5.30
2019-02-03T03:03:43.040Z,5.30
2019-02-03T03:06:10.912Z,5.20
2019-02-03T03:08:38.639Z,5.20
2019-02-03T03:11:09.440Z,5.20
2019-02-03T03:13:37.278Z,5.20
2019-02-03T03:16:05.768Z,5.10
2019-02-03T03:18:33.603Z,5.10
2019-02-03T03:21:01.471Z,5.10
2019-02-03T03:23:30.800Z,5.00
2019-02-03T03:25:58.802Z,5.00
2019-02-03T03:28:26.399Z,5.00
2019-02-03T03:30:54.685Z,5.00
2019-02-03T03:33:22.030Z,5.00
2019-02-03T03:35:49.398Z,5.10
2019-02-03T03:38:31.591Z,5.00
2019-02-03T03:40:52.927Z,5.00
2019-02-03T03:43:20.525Z,5.00
2019-02-03T03:45:48.354Z,4.90
2019-02-03T03:48:15.953Z,4.90
2019-02-03T03:50:43.828Z,4.90
2019-02-03T03:53:11.545Z,4.90
2019-02-03T03:55:39.048Z,4.90
2019-02-03T03:58:06.640Z,4.90
2019-02-03T04:00:34.669Z,4.90
2019-02-03T04:03:02.539Z,4.90
2019-02-03T04:05:30.268Z,4.90
2019-02-03T04:07:58.198Z,4.90
2019-02-03T04:10:25.998Z,4.90
2019-02-03T04:12:53.890Z,4.90
2019-02-03T04:15:22.134Z,4.90
2019-02-03T04:17:49.867Z,4.90
2019-02-03T04:20:22.639Z,4.90
2019-02-03T04:22:50.181Z,5.00
2019-02-03T04:25:17.779Z,4.90
2019-02-03T04:27:45.354Z,4.90
2019-02-03T04:30:14.434Z,4.80
2019-02-03T04:32:42.008Z,4.80
2019-02-03T04:35:09.973Z,4.80
2019-02-03T04:37:37.980Z,4.80
2019-02-03T04:40:07.490Z,4.80
2019-02-03T04:42:35.208Z,4.80
2019-02-03T04:45:03.708Z,4.90
2019-02-03T04:47:31.535Z,4.80
2019-02-03T04:49:59.236Z,4.90
2019-02-03T04:52:26.696Z,4.90
2019-02-03T04:54:54.228Z,4.90
2019-02-03T04:57:21.654Z,4.90
2019-02-03T04:59:49.202Z,5.00
2019-02-03T05:02:17.512Z,5.00
2019-02-03T05:04:45.065Z,5.00
2019-02-03T05:07:12.660Z,5.00
2019-02-03T05:09:40.513Z,5.00
2019-02-03T05:12:08.859Z,5.10
2019-02-03T05:14:36.680Z,5.10
2019-02-03T05:17:04.424Z,5.10
2019-02-03T05:19:31.831Z,5.10
2019-02-03T05:21:59.500Z,5.10
2019-02-03T05:24:26.979Z,5.10
2019-02-03T05:26:54.518Z,5.10
2019-02-03T05:29:22.063Z,5.20
2019-02-03T05:31:49.835Z,5.20
2019-02-03T05:34:17.549Z,5.10
2019-02-03T05:36:44.940Z,5.10
2019-02-03T05:39:24.288Z,5.20
2019-02-03T05:41:42.639Z,5.10
2019-02-03T05:44:09.976Z,5.20
2019-02-03T05:46:37.381Z,5.20
2019-02-03T05:49:05.215Z,5.10
2019-02-03T05:51:33.716Z,5.10
2019-02-03T05:54:01.156Z,5.10
2019-02-03T05:56:28.510Z,5.10
2019-02-03T05:58:56.352Z,5.10
2019-02-03T06:01:23.984Z,5.10
2019-02-03T06:03:51.614Z,5.10
2019-02-03T06:06:19.343Z,5.20
2019-02-03T06:08:47.047Z,5.20
2019-02-03T06:11:14.586Z,5.10
2019-02-03T06:13:41.947Z,5.10
2019-02-03T06:16:09.830Z,5.10
2019-02-03T06:18:37.227Z,5.10
2019-02-03T06:21:04.533Z,5.10
2019-02-03T06:23:31.865Z,5.20
2019-02-03T06:25:59.739Z,5.10
2019-02-03T06:28:27.529Z,5.10
2019-02-03T06:31:08.053Z,5.10
2019-02-03T06:33:35.534Z,5.10
2019-02-03T06:36:04.564Z,5.10
2019-02-03T06:38:32.087Z,5.00
2019-02-03T06:40:59.894Z,5.00
2019-02-03T06:43:28.014Z,5.00
2019-02-03T06:46:05.813Z,5.00
2019-02-03T06:48:33.373Z,4.90
2019-02-03T06:51:01.275Z,4.90
2019-02-03T06:53:29.423Z,4.80
2019-02-03T06:55:57.018Z,4.80
2019-02-03T06:58:24.969Z,4.80
2019-02-03T07:00:53.128Z,4.70
2019-02-03T07:03:21.002Z,4.70
2019-02-03T07:05:48.341Z,4.70
2019-02-03T07:08:16.591Z,4.70
2019-02-03T07:10:44.396Z,4.70
2019-02-03T07:13:12.398Z,4.60
2019-02-03T07:15:40.668Z,4.60
2019-02-03T07:18:08.303Z,4.60
2019-02-03T07:20:35.614Z,4.50
2019-02-03T07:23:03.027Z,4.50
2019-02-03T07:25:34.060Z,4.50
2019-02-03T07:28:01.510Z,4.40
2019-02-03T07:30:29.100Z,4.40
2019-02-03T07:32:57.425Z,4.40
2019-02-03T07:35:24.682Z,4.40
2019-02-03T07:37:52.429Z,4.40
2019-02-03T07:40:19.864Z,4.30
2019-02-03T07:42:47.684Z,4.40
2019-02-03T07:45:16.251Z,4.30
2019-02-03T07:47:44.039Z,4.30
2019-02-03T07:50:12.350Z,4.30
2019-02-03T07:52:40.138Z,4.30
2019-02-03T07:55:07.931Z,4.40
2019-02-03T07:57:35.663Z,4.40
2019-02-03T08:00:04.223Z,4.30
2019-02-03T08:02:32.092Z,4.30
2019-02-03T08:05:00.089Z,4.40
2019-02-03T08:07:28.156Z,4.40
2019-02-03T08:09:56.176Z,4.30
2019-02-03T08:12:23.819Z,4.40
2019-02-03T08:14:51.392Z,4.40
2019-02-03T08:17:19.753Z,4.40
2019-02-03T08:19:47.548Z,4.40
2019-02-03T08:22:15.792Z,4.40
2019-02-03T08:24:43.559Z,4.40
2019-02-03T08:27:11.367Z,4.40
2019-02-03T08:29:39.123Z,4.50
2019-02-03T08:32:06.739Z,4.30
2019-02-03T08:34:34.850Z,4.30
2019-02-03T08:37:02.402Z,4.30
2019-02-03T08:39:29.882Z,4.40
2019-02-03T08:41:57.381Z,4.40
2019-02-03T08:44:27.978Z,4.40
2019-02-03T08:46:56.755Z,4.40
2019-02-03T08:49:24.731Z,4.40
2019-02-03T08:51:53.187Z,4.40
2019-02-03T08:54:21.107Z,4.50
2019-02-03T08:56:49.217Z,4.40
2019-02-03T08:59:16.954Z,4.40
2019-02-03T09:01:45.269Z,4.40
2019-02-03T09:04:13.207Z,4.50
2019-02-03T09:06:41.568Z,4.50
2019-02-03T09:09:09.936Z,4.50
2019-02-03T09:11:38.319Z,4.50
2019-02-03T09:14:05.623Z,4.50
2019-02-03T09:16:36.766Z,4.60
2019-02-03T09:19:04.745Z,4.60
2019-02-03T09:21:32.737Z,4.60
2019-02-03T09:24:00.240Z,4.70
2019-02-03T09:26:28.097Z,4.60
2019-02-03T09:28:57.565Z,4.70
2019-02-03T09:31:25.576Z,4.70
2019-02-03T09:33:53.309Z,4.70
2019-02-03T09:36:21.315Z,4.70
2019-02-03T09:38:49.186Z,4.70
2019-02-03T09:41:16.804Z,5.00
2019-02-03T09:43:44.529Z,4.70
2019-02-03T09:46:12.254Z,4.60
2019-02-03T09:48:40.299Z,4.80
2019-02-03T09:51:09.987Z,4.70
2019-02-03T09:53:38.158Z,4.70
2019-02-03T09:56:06.415Z,4.70
2019-02-03T09:58:34.664Z,4.70
2019-02-03T10:01:02.233Z,4.70
2019-02-03T10:03:29.693Z,4.70
2019-02-03T10:05:57.269Z,4.30
2019-02-03T10:08:25.290Z,4.70
2019-02-03T10:10:52.657Z,4.70
2019-02-03T10:13:20.766Z,4.70
2019-02-03T10:15:48.631Z,4.70
2019-02-03T10:18:16.453Z,4.70
2019-02-03T10:20:45.187Z,4.70
2019-02-03T10:23:13.755Z,4.80
2019-02-03T10:25:41.442Z,4.80
2019-02-03T10:28:09.138Z,4.80
2019-02-03T10:30:36.929Z,4.80
2019-02-03T10:33:05.256Z,4.80
2019-02-03T10:35:33.204Z,4.90
2019-02-03T10:38:01.521Z,4.90
2019-02-03T10:40:34.754Z,4.90
2019-02-03T10:43:02.726Z,5.00
2019-02-03T10:45:30.328Z,5.00
2019-02-03T10:47:57.843Z,5.00
2019-02-03T10:50:28.309Z,5.00
2019-02-03T10:52:56.025Z,5.10
2019-02-03T10:55:24.307Z,5.10
2019-02-03T10:57:52.120Z,5.10
2019-02-03T11:00:21.583Z,5.10
2019-02-03T11:02:49.378Z,5.10
2019-02-03T11:05:19.310Z,5.10
2019-02-03T11:07:46.700Z,5.20
2019-02-03T11:10:16.819Z,5.20
2019-02-03T11:12:44.598Z,5.20
2019-02-03T11:15:12.984Z,5.30
2019-02-03T11:17:40.728Z,5.30
2019-02-03T11:20:12.574Z,5.30
2019-02-03T11:22:43.413Z,5.40
2019-02-03T11:25:11.932Z,5.40
2019-02-03T11:27:39.594Z,5.50
2019-02-03T11:30:12.333Z,5.50
2019-02-03T11:32:40.109Z,5.40
2019-02-03T11:35:08.060Z,5.40
2019-02-03T11:37:35.475Z,5.40
2019-02-03T11:40:04.429Z,5.50
2019-02-03T11:42:32.407Z,5.50
2019-02-03T11:45:00.020Z,5.50
2019-02-03T11:47:28.002Z,5.80
2019-02-03T11:49:55.769Z,5.70
2019-02-03T11:52:23.537Z,5.70
2019-02-03T11:54:51.460Z,5.70
2019-02-03T11:57:19.376Z,5.60
2019-02-03T11:59:47.083Z,5.70
2019-02-03T12:02:14.598Z,5.70
2019-02-03T12:04:42.599Z,5.70
2019-02-03T12:07:10.542Z,5.80
2019-02-03T12:09:38.256Z,5.80
2019-02-03T12:12:05.763Z,5.80
2019-02-03T12:14:33.408Z,5.80
2019-02-03T12:17:01.308Z,5.90
2019-02-03T12:19:28.775Z,6.00
2019-02-03T12:21:56.852Z,6.00
2019-02-03T12:24:24.446Z,6.00
2019-02-03T12:26:52.573Z,6.00
2019-02-03T12:29:20.773Z,6.00
2019-02-03T12:31:48.276Z,6.10
2019-02-03T12:34:16.192Z,6.10
2019-02-03T12:36:44.456Z,6.10
2019-02-03T12:39:12.554Z,5.80
2019-02-03T12:41:40.506Z,6.20
2019-02-03T12:44:08.681Z,6.20
2019-02-03T12:46:38.805Z,6.20
2019-02-03T12:49:06.195Z,6.20
2019-02-03T12:51:35.362Z,6.20
2019-02-03T12:54:04.026Z,6.20
2019-02-03T12:56:32.338Z,6.20
2019-02-03T12:59:00.121Z,6.30
2019-02-03T13:01:27.845Z,6.30
2019-02-03T13:03:55.969Z,6.30
2019-02-03T13:06:23.523Z,6.30
2019-02-03T13:08:50.930Z,6.40
2019-02-03T13:11:19.238Z,6.40
2019-02-03T13:13:47.289Z,6.50
2019-02-03T13:16:20.635Z,6.50
2019-02-03T13:18:44.542Z,6.50
2019-02-03T13:21:12.023Z,6.50
2019-02-03T13:23:44.858Z,6.50
2019-02-03T13:26:09.800Z,6.50
2019-02-03T13:28:37.519Z,6.50
2019-02-03T13:31:05.452Z,6.50
2019-02-03T13:33:33.202Z,6.60
2019-02-03T13:36:01.549Z,6.60
2019-02-03T13:38:29.912Z,6.60
2019-02-03T13:40:57.580Z,6.70
2019-02-03T13:43:26.129Z,6.80
2019-02-03T13:45:53.914Z,6.80
2019-02-03T13:48:21.565Z,6.80
2019-02-03T13:50:49.564Z,6.80
2019-02-03T13:53:17.668Z,6.80
2019-02-03T13:55:45.525Z,6.90
2019-02-03T13:58:13.623Z,6.90
2019-02-03T14:00:43.007Z,6.90
2019-02-03T14:03:16.816Z,6.90
2019-02-03T14:05:45.695Z,6.90
2019-02-03T14:08:13.558Z,7.00
2019-02-03T14:10:41.819Z,7.00
2019-02-03T14:13:10.201Z,7.00
2019-02-03T14:15:38.612Z,7.00
2019-02-03T14:18:07.068Z,6.90
2019-02-03T14:20:34.979Z,7.00
2019-02-03T14:23:02.838Z,7.00
2019-02-03T14:25:32.857Z,7.00
2019-02-03T14:28:00.887Z,7.00
2019-02-03T14:30:41.215Z,7.10
2019-02-03T14:33:10.046Z,7.10
2019-02-03T14:35:37.979Z,7.10
2019-02-03T14:38:06.573Z,7.10
2019-02-03T14:40:34.899Z,7.10
2019-02-03T14:43:02.830Z,7.10
2019-02-03T14:45:31.068Z,7.10
2019-02-03T14:47:59.494Z,7.10
2019-02-03T14:50:27.384Z,7.10
2019-02-03T14:52:56.552Z,7.10
2019-02-03T14:55:27.698Z,7.10
2019-02-03T14:57:55.865Z,7.10
2019-02-03T15:00:29.373Z,7.10
2019-02-03T15:03:04.344Z,7.10
2019-02-03T15:05:32.669Z,7.10
2019-02-03T15:08:00.374Z,7.10
2019-02-03T15:10:30.183Z,7.10
2019-02-03T15:12:57.999Z,7.20
2019-02-03T15:15:26.021Z,7.10
2019-02-03T15:17:54.016Z,7.10
2019-02-03T15:20:23.577Z,7.10
2019-02-03T15:22:51.640Z,7.10
2019-02-03T15:25:20.770Z,7.10
2019-02-03T15:27:50.649Z,7.20
2019-02-03T15:30:23.644Z,7.20
2019-02-03T15:32:52.074Z,7.10
2019-02-03T15:35:20.197Z,7.10
2019-02-03T15:37:47.726Z,7.10
2019-02-03T15:40:16.342Z,7.10
2019-02-03T15:42:44.129Z,7.10
2019-02-03T15:45:14.031Z,7.10
2019-02-03T15:47:41.866Z,7.10
2019-02-03T15:50:13.282Z,7.10
2019-02-03T15:52:40.862Z,7.00
2019-02-03T15:55:10.617Z,7.00
2019-02-03T15:57:38.710Z,7.00
2019-02-03T16:00:11.714Z,7.10
2019-02-03T16:02:39.506Z,7.10
2019-02-03T16:05:08.009Z,7.10
2019-02-03T16:07:35.800Z,7.10
2019-02-03T16:10:04.469Z,7.10
2019-02-03T16:12:32.184Z,7.10
2019-02-03T16:15:00.308Z,7.00
2019-02-03T16:17:28.211Z,7.00
2019-02-03T16:19:56.529Z,7.00
2019-02-03T16:22:24.769Z,7.00
2019-02-03T16:24:52.583Z,7.00
2019-02-03T16:27:20.733Z,7.00
2019-02-03T16:29:49.222Z,7.10
2019-02-03T16:32:19.240Z,7.00
2019-02-03T16:34:48.560Z,7.00
2019-02-03T16:37:16.911Z,7.00
2019-02-03T16:39:44.342Z,7.00
2019-02-03T16:42:13.352Z,7.00
2019-02-03T16:44:41.649Z,7.10
2019-02-03T16:47:15.346Z,7.00
2019-02-03T16:49:46.572Z,7.00
2019-02-03T16:52:15.725Z,7.10
2019-02-03T16:54:43.409Z,7.10
2019-02-03T16:57:13.452Z,7.00
2019-02-03T16:59:42.657Z,7.00
2019-02-03T17:02:11.735Z,7.00
2019-02-03T17:04:42.312Z,7.00
2019-02-03T17:07:10.040Z,7.00
2019-02-03T17:09:38.607Z,7.00
2019-02-03T17:12:07.483Z,7.00
2019-02-03T17:14:36.174Z,7.00
2019-02-03T17:17:04.456Z,7.00
2019-02-03T17:19:32.519Z,7.00
2019-02-03T17:22:00.258Z,7.00
2019-02-03T17:24:28.846Z,7.00
2019-02-03T17:26:56.938Z,7.00
2019-02-03T17:29:25.360Z,7.00
2019-02-03T17:31:53.538Z,7.00
2019-02-03T17:34:22.222Z,7.00
2019-02-03T17:36:49.987Z,7.10
2019-02-03T17:39:17.899Z,7.00
2019-02-03T17:41:46.618Z,7.00
2019-02-03T17:44:19.741Z,7.10
2019-02-03T17:46:44.839Z,7.10
2019-02-03T17:49:12.601Z,7.10
2019-02-03T17:51:40.845Z,7.10
2019-02-03T17:54:08.699Z,7.00
2019-02-03T17:56:36.501Z,7.00
2019-02-03T17:59:05.074Z,7.00
2019-02-03T18:01:32.615Z,7.00
2019-02-03T18:04:00.076Z,7.00
2019-02-03T18:06:28.684Z,7.00
2019-02-03T18:08:56.460Z,7.00
2019-02-03T18:11:24.257Z,7.00
2019-02-03T18:13:51.946Z,7.00
2019-02-03T18:16:20.873Z,7.10
2019-02-03T18:18:48.702Z,7.00
2019-02-03T18:21:16.758Z,7.00
2019-02-03T18:23:44.002Z,7.00
2019-02-03T18:26:12.326Z,6.90
2019-02-03T18:28:40.559Z,7.00
2019-02-03T18:31:08.882Z,7.00
2019-02-03T18:33:36.495Z,7.00
2019-02-03T18:36:04.610Z,7.00
2019-02-03T18:38:32.191Z,7.00
2019-02-03T18:40:59.762Z,7.00
2019-02-03T18:43:27.968Z,6.90
2019-02-03T18:45:56.083Z,6.90
2019-02-03T18:48:23.671Z,6.90
2019-02-03T18:50:51.483Z,6.90
2019-02-03T18:53:19.167Z,6.90
2019-02-03T18:55:46.719Z,6.90
2019-02-03T18:58:14.908Z,6.90
2019-02-03T19:00:42.708Z,6.90
2019-02-03T19:03:10.998Z,6.90
2019-02-03T19:05:39.733Z,6.90
2019-02-03T19:08:07.593Z,6.90
2019-02-03T19:10:35.044Z,6.90
2019-02-03T19:13:02.930Z,6.90
2019-02-03T19:15:31.641Z,6.80
2019-02-03T19:17:59.472Z,6.90
2019-02-03T19:20:28.958Z,6.80
2019-02-03T19:22:56.782Z,6.80
2019-02-03T19:25:25.044Z,6.80
2019-02-03T19:27:52.991Z,6.80
2019-02-03T19:30:20.824Z,6.80
2019-02-03T19:32:51.554Z,6.70
2019-02-03T19:35:19.654Z,6.70
2019-02-03T19:37:47.867Z,6.70
2019-02-03T19:40:20.665Z,6.70
2019-02-03T19:42:48.781Z,6.70
2019-02-03T19:45:17.786Z,6.70
2019-02-03T19:47:46.014Z,6.70
2019-02-03T19:50:15.992Z,6.80
2019-02-03T19:52:43.953Z,6.70
2019-02-03T19:55:12.245Z,6.70
2019-02-03T19:57:40.574Z,6.70
2019-02-03T20:00:16.917Z,6.70
2019-02-03T20:02:44.995Z,6.60
2019-02-03T20:05:13.087Z,6.60
2019-02-03T20:07:41.425Z,6.60
2019-02-03T20:10:11.954Z,6.60
2019-02-03T20:12:40.639Z,6.20
2019-02-03T20:15:10.432Z,6.60
2019-02-03T20:17:39.306Z,6.60
2019-02-03T20:20:10.795Z,6.50
2019-02-03T20:22:38.574Z,6.60
2019-02-03T20:25:08.240Z,6.50
2019-02-03T20:27:35.967Z,6.60
2019-02-03T20:30:18.899Z,6.60
2019-02-03T20:32:48.625Z,6.50
2019-02-03T20:35:16.625Z,6.50
2019-02-03T20:37:44.455Z,6.50
2019-02-03T20:40:14.953Z,6.50
2019-02-03T20:42:42.655Z,6.50
2019-02-03T20:45:19.986Z,6.50
2019-02-03T20:47:40.064Z,6.50
2019-02-03T20:50:10.989Z,6.60
2019-02-03T20:52:38.971Z,6.50
2019-02-03T20:55:07.075Z,6.50
2019-02-03T20:57:35.053Z,6.50
2019-02-03T21:00:04.671Z,6.50
2019-02-03T21:02:32.276Z,6.50
2019-02-03T21:04:59.425Z,6.50
2019-02-03T21:07:28.245Z,6.50
2019-02-03T21:09:55.616Z,6.50
2019-02-03T21:12:23.554Z,6.40
2019-02-03T21:14:51.158Z,6.50
2019-02-03T21:17:18.604Z,6.50
2019-02-03T21:19:46.509Z,6.50
2019-02-03T21:22:14.325Z,6.50
2019-02-03T21:24:42.307Z,6.40
2019-02-03T21:27:09.888Z,6.40
2019-02-03T21:29:37.702Z,6.40
2019-02-03T21:32:05.345Z,6.40
2019-02-03T21:34:33.236Z,6.40
2019-02-03T21:37:01.373Z,6.40
2019-02-03T21:39:28.781Z,6.40
2019-02-03T21:41:56.351Z,6.40
2019-02-03T21:44:24.318Z,6.40
2019-02-03T21:46:51.776Z,6.40
2019-02-03T21:49:19.935Z,6.40
2019-02-03T21:51:47.534Z,6.30
2019-02-03T21:54:15.493Z,6.40
2019-02-03T21:56:44.126Z,6.30
2019-02-03T21:59:12.080Z,6.30
2019-02-03T22:01:40.046Z,6.30
2019-02-03T22:04:07.829Z,6.30
2019-02-03T22:06:35.589Z,6.10
2019-02-03T22:09:06.371Z,6.30
2019-02-03T22:11:33.892Z,6.30
2019-02-03T22:14:01.299Z,6.30
2019-02-03T22:16:28.765Z,6.30
2019-02-03T22:18:56.091Z,6.30
2019-02-03T22:21:23.774Z,6.20
2019-02-03T22:23:51.529Z,6.30
2019-02-03T22:26:19.197Z,6.30
2019-02-03T22:28:46.636Z,6.20
2019-02-03T22:31:14.460Z,6.20
2019-02-03T22:33:42.193Z,6.30
2019-02-03T22:36:10.161Z,6.30
2019-02-03T22:38:37.629Z,6.20
2019-02-03T22:41:05.088Z,6.30
2019-02-03T22:43:33.222Z,6.30
2019-02-03T22:46:07.271Z,6.30
2019-02-03T22:48:30.309Z,6.20
2019-02-03T22:50:57.729Z,6.30
2019-02-03T22:53:25.485Z,6.20
2019-02-03T22:55:53.204Z,6.20
2019-02-03T22:58:21.145Z,6.30
2019-02-03T23:00:59.882Z,6.20
2019-02-03T23:03:36.630Z,6.20
2019-02-03T23:06:04.370Z,6.20
2019-02-03T23:08:32.057Z,6.20
2019-02-03T23:11:00.163Z,6.20
2019-02-03T23:13:29.201Z,6.20
2019-02-03T23:15:56.815Z,6.20
2019-02-03T23:18:24.340Z,6.20
2019-02-03T23:20:52.208Z,6.20
2019-02-03T23:23:20.479Z,6.20
2019-02-03T23:25:48.342Z,6.20
2019-02-03T23:28:16.553Z,6.20
2019-02-03T23:30:44.011Z,6.20
2019-02-03T23:33:11.729Z,6.20
2019-02-03T23:35:39.165Z,6.20
2019-02-03T23:38:06.816Z,6.20
2019-02-03T23:40:34.321Z,6.20
2019-02-03T23:43:02.087Z,6.20
2019-02-03T23:45:30.131Z,6.20
2019-02-03T23:47:57.788Z,6.20
2019-02-03T23:50:25.582Z,6.20
2019-02-03T23:52:53.258Z,6.10
2019-02-03T23:55:20.689Z,6.20
2019-02-03T23:57:48.748Z,6.20
